sensor_id;sensor_type;location;lat;lon;timestamp;P1;durP1;ratioP1;P2;durP2;ratioP2
2620;SDS011;1320;48.128;11.592;2022-08-24T00:00:38;12.07;;;5.73;;
2620;SDS011;1320;48.128;11.592;2022-08-24T00:03:04;10.70;;;5.90;;
2620;SDS011;1320;48.128;11.592;2022-08-24T00:05:31;11.30;;;6.10;;
2620;SDS011;1320;48.128;11.592;2022-08-24T00:07:57;11.57;;;6.90;;
2620;SDS011;1320;48.128;11.592;2022-08-24T00:10:22;10.50;;;5.20;;
2620;SDS011;1320;48.128;11.592;2022-08-24T00:12:49;9.47;;;5.60;;
2620;SDS011;1320;48.128;11.592;2022-08-24T00:15:15;11.60;;;7.20;;
2620;SDS011;1320;48.128;11.592;2022-08-24T00:17:41;12.00;;;5.60;;
2620;SDS011;1320;48.128;11.592;2022-08-24T00:20:08;11.10;;;6.03;;
2620;SDS011;1320;48.128;11.592;2022-08-24T00:22:35;9.83;;;6.30;;
2620;SDS011;1320;48.128;11.592;2022-08-24T00:25:01;10.60;;;5.60;;
2620;SDS011;1320;48.128;11.592;2022-08-24T00:27:28;9.73;;;5.87;;
2620;SDS011;1320;48.128;11.592;2022-08-24T00:29:54;12.53;;;7.37;;
2620;SDS011;1320;48.128;11.592;2022-08-24T00:32:21;12.50;;;6.10;;
2620;SDS011;1320;48.128;11.592;2022-08-24T00:34:46;10.77;;;6.60;;
2620;SDS011;1320;48.128;11.592;2022-08-24T00:37:12;10.70;;;6.50;;
2620;SDS011;1320;48.128;11.592;2022-08-24T00:39:38;10.70;;;6.73;;
2620;SDS011;1320;48.128;11.592;2022-08-24T00:42:04;10.57;;;6.27;;
2620;SDS011;1320;48.128;11.592;2022-08-24T00:44:30;10.47;;;6.90;;
2620;SDS011;1320;48.128;11.592;2022-08-24T00:47:00;10.13;;;5.30;;
2620;SDS011;1320;48.128;11.592;2022-08-24T00:52:11;9.60;;;5.87;;
2620;SDS011;1320;48.128;11.592;2022-08-24T00:55:44;9.20;;;5.13;;
2620;SDS011;1320;48.128;11.592;2022-08-24T00:57:42;10.57;;;5.23;;
2620;SDS011;1320;48.128;11.592;2022-08-24T01:00:13;9.20;;;5.03;;
2620;SDS011;1320;48.128;11.592;2022-08-24T01:02:43;10.40;;;6.13;;
2620;SDS011;1320;48.128;11.592;2022-08-24T01:05:12;9.43;;;5.33;;
2620;SDS011;1320;48.128;11.592;2022-08-24T01:07:40;8.97;;;5.80;;
2620;SDS011;1320;48.128;11.592;2022-08-24T01:10:10;9.47;;;5.63;;
2620;SDS011;1320;48.128;11.592;2022-08-24T01:12:40;11.23;;;6.33;;
2620;SDS011;1320;48.128;11.592;2022-08-24T01:15:09;10.57;;;5.30;;
2620;SDS011;1320;48.128;11.592;2022-08-24T01:17:36;9.60;;;6.30;;
2620;SDS011;1320;48.128;11.592;2022-08-24T01:20:21;9.50;;;5.30;;
2620;SDS011;1320;48.128;11.592;2022-08-24T01:25:38;9.07;;;4.87;;
2620;SDS011;1320;48.128;11.592;2022-08-24T01:28:08;10.13;;;5.10;;
2620;SDS011;1320;48.128;11.592;2022-08-24T01:30:37;14.00;;;5.60;;
2620;SDS011;1320;48.128;11.592;2022-08-24T01:33:04;9.53;;;6.00;;
2620;SDS011;1320;48.128;11.592;2022-08-24T01:35:33;10.00;;;5.70;;
2620;SDS011;1320;48.128;11.592;2022-08-24T01:38:01;8.53;;;4.53;;
2620;SDS011;1320;48.128;11.592;2022-08-24T01:40:35;10.43;;;5.50;;
2620;SDS011;1320;48.128;11.592;2022-08-24T01:43:04;10.33;;;5.27;;
2620;SDS011;1320;48.128;11.592;2022-08-24T01:45:31;9.43;;;5.60;;
2620;SDS011;1320;48.128;11.592;2022-08-24T01:47:57;9.33;;;5.33;;
2620;SDS011;1320;48.128;11.592;2022-08-24T01:50:23;10.77;;;6.10;;
2620;SDS011;1320;48.128;11.592;2022-08-24T01:52:50;10.17;;;7.77;;
2620;SDS011;1320;48.128;11.592;2022-08-24T01:55:17;11.60;;;5.57;;
2620;SDS011;1320;48.128;11.592;2022-08-24T01:57:43;8.87;;;5.20;;
2620;SDS011;1320;48.128;11.592;2022-08-24T02:00:09;9.27;;;5.17;;
2620;SDS011;1320;48.128;11.592;2022-08-24T02:02:39;9.20;;;4.93;;
2620;SDS011;1320;48.128;11.592;2022-08-24T02:05:06;9.60;;;5.07;;
2620;SDS011;1320;48.128;11.592;2022-08-24T02:07:32;10.50;;;5.80;;
2620;SDS011;1320;48.128;11.592;2022-08-24T02:09:58;9.60;;;5.27;;
2620;SDS011;1320;48.128;11.592;2022-08-24T02:12:23;10.53;;;6.67;;
2620;SDS011;1320;48.128;11.592;2022-08-24T02:14:49;10.60;;;7.03;;
2620;SDS011;1320;48.128;11.592;2022-08-24T02:17:15;9.20;;;5.50;;
2620;SDS011;1320;48.128;11.592;2022-08-24T02:19:42;10.17;;;5.73;;
2620;SDS011;1320;48.128;11.592;2022-08-24T02:22:09;9.97;;;6.27;;
2620;SDS011;1320;48.128;11.592;2022-08-24T02:24:35;9.70;;;5.20;;
2620;SDS011;1320;48.128;11.592;2022-08-24T02:27:01;9.57;;;6.17;;
2620;SDS011;1320;48.128;11.592;2022-08-24T02:29:27;10.37;;;5.33;;
2620;SDS011;1320;48.128;11.592;2022-08-24T02:31:53;9.80;;;6.37;;
2620;SDS011;1320;48.128;11.592;2022-08-24T02:34:19;13.90;;;5.60;;
2620;SDS011;1320;48.128;11.592;2022-08-24T02:36:45;9.67;;;6.53;;
2620;SDS011;1320;48.128;11.592;2022-08-24T02:39:11;9.33;;;5.27;;
2620;SDS011;1320;48.128;11.592;2022-08-24T02:41:36;9.33;;;5.20;;
2620;SDS011;1320;48.128;11.592;2022-08-24T02:44:03;9.33;;;4.90;;
2620;SDS011;1320;48.128;11.592;2022-08-24T02:46:29;9.93;;;5.13;;
2620;SDS011;1320;48.128;11.592;2022-08-24T02:48:56;9.70;;;4.97;;
2620;SDS011;1320;48.128;11.592;2022-08-24T02:51:30;9.50;;;4.80;;
2620;SDS011;1320;48.128;11.592;2022-08-24T02:53:57;10.30;;;4.87;;
2620;SDS011;1320;48.128;11.592;2022-08-24T02:56:24;11.00;;;7.10;;
2620;SDS011;1320;48.128;11.592;2022-08-24T02:58:51;11.33;;;5.97;;
2620;SDS011;1320;48.128;11.592;2022-08-24T03:01:17;10.13;;;6.17;;
2620;SDS011;1320;48.128;11.592;2022-08-24T03:03:43;12.00;;;6.17;;
2620;SDS011;1320;48.128;11.592;2022-08-24T03:06:10;9.87;;;5.70;;
2620;SDS011;1320;48.128;11.592;2022-08-24T03:08:36;10.93;;;6.03;;
2620;SDS011;1320;48.128;11.592;2022-08-24T03:11:03;11.23;;;6.10;;
2620;SDS011;1320;48.128;11.592;2022-08-24T03:13:30;10.03;;;5.40;;
2620;SDS011;1320;48.128;11.592;2022-08-24T03:15:56;11.67;;;6.33;;
2620;SDS011;1320;48.128;11.592;2022-08-24T03:18:23;11.17;;;5.73;;
2620;SDS011;1320;48.128;11.592;2022-08-24T03:20:51;10.43;;;5.77;;
2620;SDS011;1320;48.128;11.592;2022-08-24T03:23:17;10.30;;;6.03;;
2620;SDS011;1320;48.128;11.592;2022-08-24T03:25:43;10.07;;;5.87;;
2620;SDS011;1320;48.128;11.592;2022-08-24T03:28:09;9.53;;;5.50;;
2620;SDS011;1320;48.128;11.592;2022-08-24T03:30:36;10.60;;;6.00;;
2620;SDS011;1320;48.128;11.592;2022-08-24T03:33:03;11.63;;;5.50;;
2620;SDS011;1320;48.128;11.592;2022-08-24T03:35:29;10.00;;;5.40;;
2620;SDS011;1320;48.128;11.592;2022-08-24T03:37:55;11.30;;;5.30;;
2620;SDS011;1320;48.128;11.592;2022-08-24T03:40:21;12.53;;;5.47;;
2620;SDS011;1320;48.128;11.592;2022-08-24T03:42:48;9.90;;;4.87;;
2620;SDS011;1320;48.128;11.592;2022-08-24T03:45:14;11.30;;;5.87;;
2620;SDS011;1320;48.128;11.592;2022-08-24T03:47:40;10.37;;;5.97;;
2620;SDS011;1320;48.128;11.592;2022-08-24T03:50:06;10.20;;;5.70;;
2620;SDS011;1320;48.128;11.592;2022-08-24T03:52:33;10.37;;;6.00;;
2620;SDS011;1320;48.128;11.592;2022-08-24T03:54:59;10.70;;;5.63;;
2620;SDS011;1320;48.128;11.592;2022-08-24T03:57:26;9.70;;;5.37;;
2620;SDS011;1320;48.128;11.592;2022-08-24T03:59:51;11.93;;;7.20;;
2620;SDS011;1320;48.128;11.592;2022-08-24T04:02:17;16.77;;;5.90;;
2620;SDS011;1320;48.128;11.592;2022-08-24T04:04:43;11.03;;;6.47;;
2620;SDS011;1320;48.128;11.592;2022-08-24T04:07:09;14.00;;;7.07;;
2620;SDS011;1320;48.128;11.592;2022-08-24T04:09:34;18.53;;;9.03;;
2620;SDS011;1320;48.128;11.592;2022-08-24T04:12:00;12.50;;;6.80;;
2620;SDS011;1320;48.128;11.592;2022-08-24T04:14:26;14.10;;;6.43;;
2620;SDS011;1320;48.128;11.592;2022-08-24T04:16:51;11.77;;;7.17;;
2620;SDS011;1320;48.128;11.592;2022-08-24T04:19:17;14.30;;;8.23;;
2620;SDS011;1320;48.128;11.592;2022-08-24T04:21:43;13.10;;;7.87;;
2620;SDS011;1320;48.128;11.592;2022-08-24T04:24:09;11.90;;;7.53;;
2620;SDS011;1320;48.128;11.592;2022-08-24T04:26:36;11.33;;;7.20;;
2620;SDS011;1320;48.128;11.592;2022-08-24T04:29:04;13.40;;;6.97;;
2620;SDS011;1320;48.128;11.592;2022-08-24T04:31:33;13.93;;;7.73;;
2620;SDS011;1320;48.128;11.592;2022-08-24T04:34:00;12.37;;;8.13;;
2620;SDS011;1320;48.128;11.592;2022-08-24T04:36:25;14.00;;;7.37;;
2620;SDS011;1320;48.128;11.592;2022-08-24T04:38:51;11.63;;;6.77;;
2620;SDS011;1320;48.128;11.592;2022-08-24T04:41:17;11.63;;;8.00;;
2620;SDS011;1320;48.128;11.592;2022-08-24T04:43:46;16.40;;;7.73;;
2620;SDS011;1320;48.128;11.592;2022-08-24T04:46:14;11.77;;;7.57;;
2620;SDS011;1320;48.128;11.592;2022-08-24T04:48:42;12.40;;;7.40;;
2620;SDS011;1320;48.128;11.592;2022-08-24T04:51:09;14.30;;;8.70;;
2620;SDS011;1320;48.128;11.592;2022-08-24T04:53:37;11.60;;;6.43;;
2620;SDS011;1320;48.128;11.592;2022-08-24T04:56:03;13.07;;;7.93;;
2620;SDS011;1320;48.128;11.592;2022-08-24T04:58:38;11.40;;;6.83;;
2620;SDS011;1320;48.128;11.592;2022-08-24T05:01:15;12.77;;;7.33;;
2620;SDS011;1320;48.128;11.592;2022-08-24T05:03:46;11.93;;;7.20;;
2620;SDS011;1320;48.128;11.592;2022-08-24T05:06:14;17.77;;;8.13;;
2620;SDS011;1320;48.128;11.592;2022-08-24T05:08:41;12.53;;;7.13;;
2620;SDS011;1320;48.128;11.592;2022-08-24T05:11:07;13.23;;;6.97;;
2620;SDS011;1320;48.128;11.592;2022-08-24T05:13:34;15.50;;;8.13;;
2620;SDS011;1320;48.128;11.592;2022-08-24T05:16:04;15.23;;;7.53;;
2620;SDS011;1320;48.128;11.592;2022-08-24T05:18:31;14.57;;;6.83;;
2620;SDS011;1320;48.128;11.592;2022-08-24T05:20:57;15.10;;;6.97;;
2620;SDS011;1320;48.128;11.592;2022-08-24T05:23:24;11.00;;;7.60;;
2620;SDS011;1320;48.128;11.592;2022-08-24T05:25:50;13.23;;;6.50;;
2620;SDS011;1320;48.128;11.592;2022-08-24T05:28:15;13.40;;;7.17;;
2620;SDS011;1320;48.128;11.592;2022-08-24T05:30:41;14.80;;;7.33;;
2620;SDS011;1320;48.128;11.592;2022-08-24T05:33:07;13.17;;;7.97;;
2620;SDS011;1320;48.128;11.592;2022-08-24T05:35:39;11.93;;;7.40;;
2620;SDS011;1320;48.128;11.592;2022-08-24T05:38:05;11.10;;;6.77;;
2620;SDS011;1320;48.128;11.592;2022-08-24T05:40:31;11.03;;;7.97;;
2620;SDS011;1320;48.128;11.592;2022-08-24T05:42:57;11.60;;;6.90;;
2620;SDS011;1320;48.128;11.592;2022-08-24T05:45:22;10.50;;;6.13;;
2620;SDS011;1320;48.128;11.592;2022-08-24T05:47:48;11.23;;;6.50;;
2620;SDS011;1320;48.128;11.592;2022-08-24T05:50:14;12.73;;;5.93;;
2620;SDS011;1320;48.128;11.592;2022-08-24T05:52:40;11.77;;;7.50;;
2620;SDS011;1320;48.128;11.592;2022-08-24T05:55:06;10.57;;;6.97;;
2620;SDS011;1320;48.128;11.592;2022-08-24T05:57:33;11.30;;;7.80;;
2620;SDS011;1320;48.128;11.592;2022-08-24T06:00:00;11.60;;;7.93;;
2620;SDS011;1320;48.128;11.592;2022-08-24T06:02:28;10.20;;;6.60;;
2620;SDS011;1320;48.128;11.592;2022-08-24T06:04:54;16.83;;;7.07;;
2620;SDS011;1320;48.128;11.592;2022-08-24T06:07:19;11.33;;;6.73;;
2620;SDS011;1320;48.128;11.592;2022-08-24T06:09:45;11.30;;;7.00;;
2620;SDS011;1320;48.128;11.592;2022-08-24T06:12:11;14.97;;;7.27;;
2620;SDS011;1320;48.128;11.592;2022-08-24T06:14:37;13.30;;;6.80;;
2620;SDS011;1320;48.128;11.592;2022-08-24T06:17:04;11.70;;;7.80;;
2620;SDS011;1320;48.128;11.592;2022-08-24T06:19:31;12.10;;;6.73;;
2620;SDS011;1320;48.128;11.592;2022-08-24T06:21:57;11.40;;;6.60;;
2620;SDS011;1320;48.128;11.592;2022-08-24T06:24:23;10.57;;;6.33;;
2620;SDS011;1320;48.128;11.592;2022-08-24T06:27:10;12.60;;;6.17;;
2620;SDS011;1320;48.128;11.592;2022-08-24T06:29:47;10.30;;;6.00;;
2620;SDS011;1320;48.128;11.592;2022-08-24T06:32:19;11.17;;;6.23;;
2620;SDS011;1320;48.128;11.592;2022-08-24T06:34:45;11.60;;;5.40;;
2620;SDS011;1320;48.128;11.592;2022-08-24T06:37:11;10.83;;;6.70;;
2620;SDS011;1320;48.128;11.592;2022-08-24T06:39:37;10.90;;;6.00;;
2620;SDS011;1320;48.128;11.592;2022-08-24T06:42:02;10.50;;;5.77;;
2620;SDS011;1320;48.128;11.592;2022-08-24T06:44:29;11.90;;;6.63;;
2620;SDS011;1320;48.128;11.592;2022-08-24T06:46:56;12.27;;;5.57;;
2620;SDS011;1320;48.128;11.592;2022-08-24T06:49:22;10.03;;;6.33;;
2620;SDS011;1320;48.128;11.592;2022-08-24T06:51:48;11.97;;;7.27;;
2620;SDS011;1320;48.128;11.592;2022-08-24T06:54:14;10.30;;;5.03;;
2620;SDS011;1320;48.128;11.592;2022-08-24T06:56:40;12.27;;;6.40;;
2620;SDS011;1320;48.128;11.592;2022-08-24T06:59:06;10.63;;;5.60;;
2620;SDS011;1320;48.128;11.592;2022-08-24T07:01:32;9.90;;;6.70;;
2620;SDS011;1320;48.128;11.592;2022-08-24T07:03:58;15.20;;;5.53;;
2620;SDS011;1320;48.128;11.592;2022-08-24T07:06:24;10.77;;;5.83;;
2620;SDS011;1320;48.128;11.592;2022-08-24T07:08:50;8.93;;;5.50;;
2620;SDS011;1320;48.128;11.592;2022-08-24T07:11:17;10.83;;;6.00;;
2620;SDS011;1320;48.128;11.592;2022-08-24T07:13:44;10.07;;;5.80;;
2620;SDS011;1320;48.128;11.592;2022-08-24T07:16:11;14.70;;;7.00;;
2620;SDS011;1320;48.128;11.592;2022-08-24T07:18:44;9.03;;;5.97;;
2620;SDS011;1320;48.128;11.592;2022-08-24T07:21:10;9.67;;;5.00;;
2620;SDS011;1320;48.128;11.592;2022-08-24T07:23:35;8.90;;;6.10;;
2620;SDS011;1320;48.128;11.592;2022-08-24T07:26:09;10.97;;;7.30;;
2620;SDS011;1320;48.128;11.592;2022-08-24T07:28:37;10.90;;;6.83;;
2620;SDS011;1320;48.128;11.592;2022-08-24T07:31:04;11.90;;;7.30;;
2620;SDS011;1320;48.128;11.592;2022-08-24T07:33:31;9.37;;;5.53;;
2620;SDS011;1320;48.128;11.592;2022-08-24T07:35:57;11.57;;;6.40;;
2620;SDS011;1320;48.128;11.592;2022-08-24T07:38:24;12.50;;;6.30;;
2620;SDS011;1320;48.128;11.592;2022-08-24T07:40:50;9.17;;;6.87;;
2620;SDS011;1320;48.128;11.592;2022-08-24T07:43:17;11.30;;;4.97;;
2620;SDS011;1320;48.128;11.592;2022-08-24T07:45:44;10.90;;;6.90;;
2620;SDS011;1320;48.128;11.592;2022-08-24T07:48:11;9.20;;;6.23;;
2620;SDS011;1320;48.128;11.592;2022-08-24T07:50:37;13.50;;;6.00;;
2620;SDS011;1320;48.128;11.592;2022-08-24T07:53:03;10.57;;;6.80;;
2620;SDS011;1320;48.128;11.592;2022-08-24T07:55:29;10.20;;;6.40;;
2620;SDS011;1320;48.128;11.592;2022-08-24T07:57:54;11.07;;;6.47;;
2620;SDS011;1320;48.128;11.592;2022-08-24T08:00:20;11.80;;;8.57;;
2620;SDS011;1320;48.128;11.592;2022-08-24T08:02:47;10.70;;;9.60;;
2620;SDS011;1320;48.128;11.592;2022-08-24T08:05:14;11.53;;;10.33;;
2620;SDS011;1320;48.128;11.592;2022-08-24T08:07:42;9.00;;;7.40;;
2620;SDS011;1320;48.128;11.592;2022-08-24T08:10:08;12.77;;;11.47;;
2620;SDS011;1320;48.128;11.592;2022-08-24T08:12:36;11.77;;;9.77;;
2620;SDS011;1320;48.128;11.592;2022-08-24T08:15:02;12.83;;;11.53;;
2620;SDS011;1320;48.128;11.592;2022-08-24T08:17:29;14.40;;;13.07;;
2620;SDS011;1320;48.128;11.592;2022-08-24T08:19:55;12.00;;;10.87;;
2620;SDS011;1320;48.128;11.592;2022-08-24T08:22:20;9.53;;;8.53;;
2620;SDS011;1320;48.128;11.592;2022-08-24T08:25:05;10.17;;;8.80;;
2620;SDS011;1320;48.128;11.592;2022-08-24T08:27:32;10.60;;;9.60;;
2620;SDS011;1320;48.128;11.592;2022-08-24T08:29:59;10.93;;;9.80;;
2620;SDS011;1320;48.128;11.592;2022-08-24T08:32:25;10.97;;;10.07;;
2620;SDS011;1320;48.128;11.592;2022-08-24T08:34:51;11.00;;;9.70;;
2620;SDS011;1320;48.128;11.592;2022-08-24T08:37:17;9.87;;;8.97;;
2620;SDS011;1320;48.128;11.592;2022-08-24T08:39:43;12.37;;;11.40;;
2620;SDS011;1320;48.128;11.592;2022-08-24T08:45:03;8.37;;;7.43;;
2620;SDS011;1320;48.128;11.592;2022-08-24T08:56:38;11.20;;;10.20;;
2620;SDS011;1320;48.128;11.592;2022-08-24T09:04:23;12.43;;;11.27;;
2620;SDS011;1320;48.128;11.592;2022-08-24T09:10:02;9.43;;;8.60;;
2620;SDS011;1320;48.128;11.592;2022-08-24T09:35:14;8.60;;;7.67;;
2620;SDS011;1320;48.128;11.592;2022-08-24T09:46:38;11.40;;;10.40;;
2620;SDS011;1320;48.128;11.592;2022-08-24T09:49:45;12.50;;;10.90;;
2620;SDS011;1320;48.128;11.592;2022-08-24T10:00:47;11.23;;;10.23;;
2620;SDS011;1320;48.128;11.592;2022-08-24T10:06:22;13.53;;;12.43;;
2620;SDS011;1320;48.128;11.592;2022-08-24T10:12:07;12.13;;;10.93;;
2620;SDS011;1320;48.128;11.592;2022-08-24T10:20:15;12.03;;;11.07;;
2620;SDS011;1320;48.128;11.592;2022-08-24T10:25:58;13.17;;;11.93;;
2620;SDS011;1320;48.128;11.592;2022-08-24T10:31:07;11.37;;;10.27;;
2620;SDS011;1320;48.128;11.592;2022-08-24T10:42:15;9.57;;;8.60;;
2620;SDS011;1320;48.128;11.592;2022-08-24T10:51:08;9.43;;;8.40;;
2620;SDS011;1320;48.128;11.592;2022-08-24T10:53:52;11.77;;;10.63;;
2620;SDS011;1320;48.128;11.592;2022-08-24T10:56:19;9.43;;;8.50;;
2620;SDS011;1320;48.128;11.592;2022-08-24T11:01:29;9.90;;;8.90;;
2620;SDS011;1320;48.128;11.592;2022-08-24T11:03:59;9.00;;;8.10;;
2620;SDS011;1320;48.128;11.592;2022-08-24T11:06:27;10.20;;;9.20;;
2620;SDS011;1320;48.128;11.592;2022-08-24T11:11:40;10.70;;;7.97;;
2620;SDS011;1320;48.128;11.592;2022-08-24T11:16:40;12.00;;;10.03;;
2620;SDS011;1320;48.128;11.592;2022-08-24T11:19:51;8.23;;;7.33;;
2620;SDS011;1320;48.128;11.592;2022-08-24T11:22:03;10.37;;;9.30;;
2620;SDS011;1320;48.128;11.592;2022-08-24T11:24:45;9.33;;;8.30;;
2620;SDS011;1320;48.128;11.592;2022-08-24T11:32:36;9.83;;;8.70;;
2620;SDS011;1320;48.128;11.592;2022-08-24T11:37:43;8.13;;;6.70;;
2620;SDS011;1320;48.128;11.592;2022-08-24T11:40:10;9.03;;;7.40;;
2620;SDS011;1320;48.128;11.592;2022-08-24T11:50:21;8.70;;;7.43;;
2620;SDS011;1320;48.128;11.592;2022-08-24T11:58:37;15.90;;;8.17;;
2620;SDS011;1320;48.128;11.592;2022-08-24T12:01:04;9.30;;;8.10;;
2620;SDS011;1320;48.128;11.592;2022-08-24T12:07:02;9.27;;;8.00;;
2620;SDS011;1320;48.128;11.592;2022-08-24T12:15:12;9.47;;;8.57;;
2620;SDS011;1320;48.128;11.592;2022-08-24T12:17:58;9.40;;;7.17;;
2620;SDS011;1320;48.128;11.592;2022-08-24T12:23:10;8.57;;;7.47;;
2620;SDS011;1320;48.128;11.592;2022-08-24T12:26:21;9.43;;;7.67;;
2620;SDS011;1320;48.128;11.592;2022-08-24T12:28:54;9.13;;;7.00;;
2620;SDS011;1320;48.128;11.592;2022-08-24T12:31:58;9.37;;;7.03;;
2620;SDS011;1320;48.128;11.592;2022-08-24T12:39:38;8.77;;;7.30;;
2620;SDS011;1320;48.128;11.592;2022-08-24T12:45:08;8.20;;;6.23;;
2620;SDS011;1320;48.128;11.592;2022-08-24T12:50:33;9.50;;;8.60;;
2620;SDS011;1320;48.128;11.592;2022-08-24T12:53:26;8.67;;;6.63;;
2620;SDS011;1320;48.128;11.592;2022-08-24T13:01:46;8.03;;;7.23;;
2620;SDS011;1320;48.128;11.592;2022-08-24T13:33:24;10.00;;;9.00;;
2620;SDS011;1320;48.128;11.592;2022-08-24T13:46:41;10.73;;;9.73;;
2620;SDS011;1320;48.128;11.592;2022-08-24T13:58:05;8.40;;;7.50;;
2620;SDS011;1320;48.128;11.592;2022-08-24T14:00:41;8.73;;;7.87;;
2620;SDS011;1320;48.128;11.592;2022-08-24T14:14:12;7.57;;;6.47;;
2620;SDS011;1320;48.128;11.592;2022-08-24T14:25:47;12.43;;;11.53;;
2620;SDS011;1320;48.128;11.592;2022-08-24T14:28:26;9.13;;;8.23;;
2620;SDS011;1320;48.128;11.592;2022-08-24T14:31:13;9.20;;;8.40;;
2620;SDS011;1320;48.128;11.592;2022-08-24T14:42:34;8.97;;;7.53;;
2620;SDS011;1320;48.128;11.592;2022-08-24T14:45:09;9.30;;;8.50;;
2620;SDS011;1320;48.128;11.592;2022-08-24T14:59:30;11.20;;;10.20;;
2620;SDS011;1320;48.128;11.592;2022-08-24T15:07:57;10.67;;;9.77;;
2620;SDS011;1320;48.128;11.592;2022-08-24T15:16:33;8.97;;;8.17;;
2620;SDS011;1320;48.128;11.592;2022-08-24T15:22:00;9.00;;;6.90;;
2620;SDS011;1320;48.128;11.592;2022-08-24T15:27:23;7.50;;;6.80;;
2620;SDS011;1320;48.128;11.592;2022-08-24T15:30:19;8.53;;;7.73;;
2620;SDS011;1320;48.128;11.592;2022-08-24T15:32:52;8.10;;;6.93;;
2620;SDS011;1320;48.128;11.592;2022-08-24T15:35:29;10.63;;;9.77;;
2620;SDS011;1320;48.128;11.592;2022-08-24T15:38:14;10.13;;;9.13;;
2620;SDS011;1320;48.128;11.592;2022-08-24T15:40:46;8.70;;;6.73;;
2620;SDS011;1320;48.128;11.592;2022-08-24T15:43:16;9.77;;;8.87;;
2620;SDS011;1320;48.128;11.592;2022-08-24T15:45:46;7.13;;;5.70;;
2620;SDS011;1320;48.128;11.592;2022-08-24T15:48:15;10.10;;;9.10;;
2620;SDS011;1320;48.128;11.592;2022-08-24T15:50:45;8.97;;;8.17;;
2620;SDS011;1320;48.128;11.592;2022-08-24T15:56:50;8.47;;;7.47;;
2620;SDS011;1320;48.128;11.592;2022-08-24T15:59:06;9.87;;;8.93;;
2620;SDS011;1320;48.128;11.592;2022-08-24T16:01:33;8.50;;;7.37;;
2620;SDS011;1320;48.128;11.592;2022-08-24T16:04:38;10.80;;;9.90;;
2620;SDS011;1320;48.128;11.592;2022-08-24T16:07:11;10.17;;;9.27;;
2620;SDS011;1320;48.128;11.592;2022-08-24T16:09:45;8.33;;;7.53;;
2620;SDS011;1320;48.128;11.592;2022-08-24T16:12:12;7.20;;;6.43;;
2620;SDS011;1320;48.128;11.592;2022-08-24T16:14:45;7.30;;;6.27;;
2620;SDS011;1320;48.128;11.592;2022-08-24T16:17:18;8.37;;;7.50;;
2620;SDS011;1320;48.128;11.592;2022-08-24T16:19:48;7.83;;;5.90;;
2620;SDS011;1320;48.128;11.592;2022-08-24T16:22:24;8.83;;;7.07;;
2620;SDS011;1320;48.128;11.592;2022-08-24T16:30:22;11.10;;;6.57;;
2620;SDS011;1320;48.128;11.592;2022-08-24T16:32:52;8.10;;;7.30;;
2620;SDS011;1320;48.128;11.592;2022-08-24T16:35:20;12.23;;;7.00;;
2620;SDS011;1320;48.128;11.592;2022-08-24T16:37:47;7.43;;;6.17;;
2620;SDS011;1320;48.128;11.592;2022-08-24T16:40:14;7.63;;;6.87;;
2620;SDS011;1320;48.128;11.592;2022-08-24T16:42:40;6.53;;;5.87;;
2620;SDS011;1320;48.128;11.592;2022-08-24T16:45:07;6.53;;;5.30;;
2620;SDS011;1320;48.128;11.592;2022-08-24T16:47:34;7.97;;;6.17;;
2620;SDS011;1320;48.128;11.592;2022-08-24T16:50:00;9.00;;;8.20;;
2620;SDS011;1320;48.128;11.592;2022-08-24T16:52:27;7.70;;;7.00;;
2620;SDS011;1320;48.128;11.592;2022-08-24T16:54:52;6.97;;;6.23;;
2620;SDS011;1320;48.128;11.592;2022-08-24T16:59:47;8.67;;;7.80;;
2620;SDS011;1320;48.128;11.592;2022-08-24T17:02:15;9.20;;;7.40;;
2620;SDS011;1320;48.128;11.592;2022-08-24T17:04:42;8.37;;;6.00;;
2620;SDS011;1320;48.128;11.592;2022-08-24T17:07:09;8.00;;;7.30;;
2620;SDS011;1320;48.128;11.592;2022-08-24T17:09:38;8.37;;;7.60;;
2620;SDS011;1320;48.128;11.592;2022-08-24T17:12:06;6.63;;;5.70;;
2620;SDS011;1320;48.128;11.592;2022-08-24T17:14:33;8.97;;;7.77;;
2620;SDS011;1320;48.128;11.592;2022-08-24T17:17:02;7.97;;;7.17;;
2620;SDS011;1320;48.128;11.592;2022-08-24T17:19:28;8.80;;;8.00;;
2620;SDS011;1320;48.128;11.592;2022-08-24T17:21:55;8.50;;;7.70;;
2620;SDS011;1320;48.128;11.592;2022-08-24T17:24:21;8.20;;;7.40;;
2620;SDS011;1320;48.128;11.592;2022-08-24T17:26:48;8.27;;;7.30;;
2620;SDS011;1320;48.128;11.592;2022-08-24T17:29:16;10.90;;;9.30;;
2620;SDS011;1320;48.128;11.592;2022-08-24T17:31:44;9.57;;;8.67;;
2620;SDS011;1320;48.128;11.592;2022-08-24T17:34:10;8.47;;;7.57;;
2620;SDS011;1320;48.128;11.592;2022-08-24T17:36:37;10.70;;;9.70;;
2620;SDS011;1320;48.128;11.592;2022-08-24T17:39:04;10.17;;;9.20;;
2620;SDS011;1320;48.128;11.592;2022-08-24T17:41:31;8.17;;;7.37;;
2620;SDS011;1320;48.128;11.592;2022-08-24T17:43:57;8.73;;;7.73;;
2620;SDS011;1320;48.128;11.592;2022-08-24T17:46:25;8.90;;;8.00;;
2620;SDS011;1320;48.128;11.592;2022-08-24T17:48:52;8.33;;;5.97;;
2620;SDS011;1320;48.128;11.592;2022-08-24T17:51:20;13.33;;;8.63;;
2620;SDS011;1320;48.128;11.592;2022-08-24T17:53:45;10.23;;;8.87;;
2620;SDS011;1320;48.128;11.592;2022-08-24T17:56:11;8.57;;;7.77;;
2620;SDS011;1320;48.128;11.592;2022-08-24T17:58:39;10.60;;;7.80;;
2620;SDS011;1320;48.128;11.592;2022-08-24T18:01:24;10.93;;;8.40;;
2620;SDS011;1320;48.128;11.592;2022-08-24T18:03:51;9.47;;;7.03;;
2620;SDS011;1320;48.128;11.592;2022-08-24T18:06:17;8.57;;;6.80;;
2620;SDS011;1320;48.128;11.592;2022-08-24T18:08:44;9.63;;;5.57;;
2620;SDS011;1320;48.128;11.592;2022-08-24T18:11:11;10.00;;;8.30;;
2620;SDS011;1320;48.128;11.592;2022-08-24T18:13:36;8.50;;;6.47;;
2620;SDS011;1320;48.128;11.592;2022-08-24T18:16:02;10.47;;;6.50;;
2620;SDS011;1320;48.128;11.592;2022-08-24T18:18:28;13.07;;;7.77;;
2620;SDS011;1320;48.128;11.592;2022-08-24T18:20:55;10.77;;;6.83;;
2620;SDS011;1320;48.128;11.592;2022-08-24T18:23:20;8.33;;;5.50;;
2620;SDS011;1320;48.128;11.592;2022-08-24T18:25:46;10.30;;;6.13;;
2620;SDS011;1320;48.128;11.592;2022-08-24T18:28:15;9.50;;;7.17;;
2620;SDS011;1320;48.128;11.592;2022-08-24T18:30:42;8.73;;;6.83;;
2620;SDS011;1320;48.128;11.592;2022-08-24T18:33:08;11.37;;;6.67;;
2620;SDS011;1320;48.128;11.592;2022-08-24T18:35:34;9.80;;;6.07;;
2620;SDS011;1320;48.128;11.592;2022-08-24T18:38:00;10.20;;;7.57;;
2620;SDS011;1320;48.128;11.592;2022-08-24T18:40:26;8.80;;;5.77;;
2620;SDS011;1320;48.128;11.592;2022-08-24T18:42:52;9.30;;;6.90;;
2620;SDS011;1320;48.128;11.592;2022-08-24T18:45:19;9.67;;;6.30;;
2620;SDS011;1320;48.128;11.592;2022-08-24T18:47:45;10.20;;;6.97;;
2620;SDS011;1320;48.128;11.592;2022-08-24T18:50:11;10.03;;;6.33;;
2620;SDS011;1320;48.128;11.592;2022-08-24T18:52:37;9.17;;;6.50;;
2620;SDS011;1320;48.128;11.592;2022-08-24T18:55:05;11.73;;;7.50;;
2620;SDS011;1320;48.128;11.592;2022-08-24T18:57:31;11.63;;;6.27;;
2620;SDS011;1320;48.128;11.592;2022-08-24T18:59:58;10.97;;;6.90;;
2620;SDS011;1320;48.128;11.592;2022-08-24T19:02:23;10.97;;;7.27;;
2620;SDS011;1320;48.128;11.592;2022-08-24T19:05:17;9.60;;;6.73;;
2620;SDS011;1320;48.128;11.592;2022-08-24T19:07:46;9.70;;;6.10;;
2620;SDS011;1320;48.128;11.592;2022-08-24T19:10:15;8.70;;;6.40;;
2620;SDS011;1320;48.128;11.592;2022-08-24T19:12:43;9.60;;;5.90;;
2620;SDS011;1320;48.128;11.592;2022-08-24T19:15:16;9.57;;;6.73;;
2620;SDS011;1320;48.128;11.592;2022-08-24T19:17:43;10.27;;;6.10;;
2620;SDS011;1320;48.128;11.592;2022-08-24T19:20:09;12.27;;;6.03;;
2620;SDS011;1320;48.128;11.592;2022-08-24T19:22:39;8.80;;;6.60;;
2620;SDS011;1320;48.128;11.592;2022-08-24T19:25:06;10.33;;;6.80;;
2620;SDS011;1320;48.128;11.592;2022-08-24T19:27:38;8.30;;;6.30;;
2620;SDS011;1320;48.128;11.592;2022-08-24T19:30:04;9.47;;;6.53;;
2620;SDS011;1320;48.128;11.592;2022-08-24T19:32:30;9.00;;;6.17;;
2620;SDS011;1320;48.128;11.592;2022-08-24T19:35:03;10.33;;;7.03;;
2620;SDS011;1320;48.128;11.592;2022-08-24T19:37:29;9.77;;;7.37;;